Time;durP1;ratioP1;P1;durP2;ratioP2;P2;SDS_P1;SDS_P2;PMS_P1;PMS_P2;Temp;Humidity;BMP_temperature;BMP_pressure;BME280_temperature;BME280_humidity;BME280_pressure;Samples;Min_cycle;Max_cycle;Signal;HPM_P1;HPM_P2
2022/03/18 00:00:52;;;;;;;13.45;6.38;;;;;;;;;;5035129;28;20041;-88
2022/03/18 00:03:18;;;;;;;13.25;6.20;;;;;;;;;;5013784;28;20042;-88
2022/03/18 00:05:44;;;;;;;11.15;5.90;;;;;;;;;;5010259;28;20245;-87
2022/03/18 00:08:10;;;;;;;16.48;6.65;;;;;;;;;;5021961;28;20236;-88
2022/03/18 00:10:36;;;;;;;18.75;6.93;;;;;;;;;;5008613;28;20132;-87
2022/03/18 00:13:03;;;;;;;14.27;7.07;;;;;;;;;;5021936;28;20093;-88
2022/03/18 00:15:29;;;;;;;14.80;7.40;;;;;;;;;;5014974;28;20121;-88
2022/03/18 00:17:55;;;;;;;15.77;7.93;;;;;;;;;;5007830;28;20129;-88
2022/03/18 00:20:22;;;;;;;13.20;7.03;;;;;;;;;;5016282;28;20117;-88
2022/03/18 00:22:48;;;;;;;13.73;6.75;;;;;;;;;;5014728;28;20062;-87
2022/03/18 00:25:15;;;;;;;13.38;6.50;;;;;;;;;;5024133;28;20042;-88
2022/03/18 00:27:44;;;;;;;14.27;7.00;;;;;;;;;;5012678;28;20120;-87
2022/03/18 00:30:11;;;;;;;15.05;7.13;;;;;;;;;;5027654;28;20120;-88
2022/03/18 00:32:38;;;;;;;16.52;5.75;;;;;;;;;;5027882;28;20099;-88
2022/03/18 00:35:04;;;;;;;13.52;7.13;;;;;;;;;;5011435;28;20041;-88
2022/03/18 00:37:30;;;;;;;14.15;7.20;;;;;;;;;;5022738;28;20590;-87
2022/03/18 00:39:56;;;;;;;15.30;6.80;;;;;;;;;;5016120;28;20133;-87
2022/03/18 00:42:22;;;;;;;13.00;7.20;;;;;;;;;;5027575;28;20115;-87
2022/03/18 00:44:48;;;;;;;15.10;7.47;;;;;;;;;;5011562;28;20454;-87
2022/03/18 00:52:44;;;;;;;13.25;7.35;;;;;;;;;;5023473;28;20037;-87
2022/03/18 00:55:10;;;;;;;16.98;7.80;;;;;;;;;;5012179;28;20394;-87
2022/03/18 00:57:37;;;;;;;14.93;7.95;;;;;;;;;;5019291;28;20053;-87
2022/03/18 01:00:03;;;;;;;12.80;7.10;;;;;;;;;;5019511;28;20080;-87
2022/03/18 01:02:29;;;;;;;16.90;8.60;;;;;;;;;;5011601;28;20482;-87
2022/03/18 01:04:55;;;;;;;14.73;7.15;;;;;;;;;;5011395;28;20048;-87
2022/03/18 01:07:21;;;;;;;13.50;7.53;;;;;;;;;;5020220;28;20038;-87
2022/03/18 01:09:47;;;;;;;17.40;9.10;;;;;;;;;;5018670;28;20561;-87
2022/03/18 01:12:13;;;;;;;17.65;10.48;;;;;;;;;;5013087;28;20148;-87
2022/03/18 01:14:39;;;;;;;22.45;11.45;;;;;;;;;;5011429;28;20312;-87
2022/03/18 01:17:05;;;;;;;18.15;9.90;;;;;;;;;;5020431;28;20054;-87
2022/03/18 01:19:32;;;;;;;20.42;10.07;;;;;;;;;;5017768;28;20052;-87
2022/03/18 01:21:57;;;;;;;20.77;10.45;;;;;;;;;;5012580;28;20046;-87
2022/03/18 01:24:23;;;;;;;22.00;11.57;;;;;;;;;;5023066;28;20056;-87
2022/03/18 01:26:49;;;;;;;19.58;11.02;;;;;;;;;;5029817;28;20048;-87
2022/03/18 01:29:16;;;;;;;17.40;10.45;;;;;;;;;;5022979;28;20068;-87
2022/03/18 01:31:42;;;;;;;22.83;11.13;;;;;;;;;;5017274;28;20048;-87
2022/03/18 01:34:08;;;;;;;21.55;11.10;;;;;;;;;;5006868;28;20088;-87
2022/03/18 01:36:34;;;;;;;21.88;11.70;;;;;;;;;;5008809;28;20081;-87
2022/03/18 01:39:01;;;;;;;22.70;11.57;;;;;;;;;;5006651;28;20460;-87
2022/03/18 01:41:27;;;;;;;22.08;11.45;;;;;;;;;;5016733;28;20048;-87
2022/03/18 01:43:53;;;;;;;23.40;11.40;;;;;;;;;;5007432;28;20046;-87
2022/03/18 01:46:19;;;;;;;21.15;12.88;;;;;;;;;;5022478;28;20541;-87
2022/03/18 01:48:46;;;;;;;22.83;11.45;;;;;;;;;;5007106;28;20128;-87
2022/03/18 01:51:15;;;;;;;20.67;11.35;;;;;;;;;;5023333;28;20038;-87
2022/03/18 01:53:43;;;;;;;23.67;12.20;;;;;;;;;;5023892;28;20529;-87
2022/03/18 01:56:09;;;;;;;18.83;11.35;;;;;;;;;;5021691;28;20042;-87
2022/03/18 01:58:35;;;;;;;21.50;12.45;;;;;;;;;;5031550;28;20049;-87
2022/03/18 02:01:01;;;;;;;20.52;10.90;;;;;;;;;;5026407;28;20079;-87
2022/03/18 02:03:27;;;;;;;20.58;11.65;;;;;;;;;;5010374;28;20042;-87
2022/03/18 02:05:53;;;;;;;18.65;11.23;;;;;;;;;;5026349;28;20037;-87
2022/03/18 02:08:20;;;;;;;24.80;13.15;;;;;;;;;;5018448;28;20050;-86
2022/03/18 02:10:46;;;;;;;21.30;13.05;;;;;;;;;;5034420;28;20043;-87
2022/03/18 02:13:12;;;;;;;21.10;11.57;;;;;;;;;;5011079;28;20104;-87
2022/03/18 02:15:39;;;;;;;18.65;11.18;;;;;;;;;;5022371;28;20041;-87
2022/03/18 02:18:05;;;;;;;22.58;11.93;;;;;;;;;;5029890;28;20619;-87
2022/03/18 02:20:35;;;;;;;16.45;10.25;;;;;;;;;;5015526;28;20485;-87
2022/03/18 02:23:04;;;;;;;17.08;10.30;;;;;;;;;;5020037;28;20061;-87
2022/03/18 02:25:30;;;;;;;20.98;11.90;;;;;;;;;;5012077;28;20089;-87
2022/03/18 02:28:01;;;;;;;22.40;13.27;;;;;;;;;;5018986;28;20088;-86
2022/03/18 02:30:31;;;;;;;19.95;12.30;;;;;;;;;;5022793;28;20049;-87
2022/03/18 02:32:58;;;;;;;22.13;12.32;;;;;;;;;;5006953;28;20038;-87
2022/03/18 02:35:24;;;;;;;22.38;12.55;;;;;;;;;;5022515;28;20690;-87
2022/03/18 02:37:50;;;;;;;19.73;12.50;;;;;;;;;;5013663;28;20124;-87
2022/03/18 02:40:16;;;;;;;20.63;12.10;;;;;;;;;;5016685;28;20129;-87
2022/03/18 02:42:43;;;;;;;20.02;11.88;;;;;;;;;;5026402;28;20042;-86
2022/03/18 02:45:10;;;;;;;24.73;12.38;;;;;;;;;;5034756;28;20049;-87
2022/03/18 02:47:36;;;;;;;21.23;12.73;;;;;;;;;;5033432;28;20069;-87
2022/03/18 02:50:02;;;;;;;19.70;12.55;;;;;;;;;;5018613;28;20053;-87
2022/03/18 02:52:28;;;;;;;19.52;13.52;;;;;;;;;;5026052;28;20038;-86
2022/03/18 02:54:54;;;;;;;23.50;13.43;;;;;;;;;;5042486;28;20052;-87
2022/03/18 02:57:20;;;;;;;25.42;13.88;;;;;;;;;;5026015;28;20409;-87
2022/03/18 02:59:46;;;;;;;22.95;13.48;;;;;;;;;;5019353;28;20037;-87
2022/03/18 03:02:12;;;;;;;22.60;14.73;;;;;;;;;;5025993;28;20042;-87
2022/03/18 03:07:58;;;;;;;24.23;14.23;;;;;;;;;;5023498;28;20662;-87
2022/03/18 03:10:11;;;;;;;25.30;15.25;;;;;;;;;;5014684;28;20053;-87
2022/03/18 03:12:37;;;;;;;24.67;14.35;;;;;;;;;;5009496;28;20116;-86
2022/03/18 03:15:03;;;;;;;18.40;12.98;;;;;;;;;;5015900;28;20045;-86
2022/03/18 03:17:29;;;;;;;19.25;12.13;;;;;;;;;;5025885;28;20096;-86
2022/03/18 03:19:56;;;;;;;20.75;13.02;;;;;;;;;;5020276;28;20121;-87
2022/03/18 03:22:22;;;;;;;22.45;13.80;;;;;;;;;;5010926;28;20160;-86
2022/03/18 03:24:48;;;;;;;24.67;15.60;;;;;;;;;;5022697;28;20132;-87
2022/03/18 03:27:14;;;;;;;23.85;15.65;;;;;;;;;;5026306;28;20072;-86
2022/03/18 03:29:40;;;;;;;21.88;15.25;;;;;;;;;;5038971;28;20049;-87
2022/03/18 03:32:06;;;;;;;24.73;15.73;;;;;;;;;;5026040;28;20052;-86
2022/03/18 03:34:32;;;;;;;23.77;16.38;;;;;;;;;;5013631;28;20072;-86
2022/03/18 03:36:58;;;;;;;25.85;15.57;;;;;;;;;;5008918;28;20125;-86
2022/03/18 03:39:25;;;;;;;26.30;16.75;;;;;;;;;;5005058;28;20103;-86
2022/03/18 03:41:50;;;;;;;24.83;17.15;;;;;;;;;;5012777;28;20100;-86
2022/03/18 03:44:16;;;;;;;21.17;14.32;;;;;;;;;;5028640;28;20045;-86
2022/03/18 03:46:43;;;;;;;21.63;13.65;;;;;;;;;;5020514;28;20058;-86
2022/03/18 03:49:09;;;;;;;20.02;15.20;;;;;;;;;;5020468;28;20045;-86
2022/03/18 03:51:35;;;;;;;28.98;15.65;;;;;;;;;;5011897;28;20065;-86
2022/03/18 03:54:01;;;;;;;22.52;16.13;;;;;;;;;;5044894;28;20053;-86
2022/03/18 03:56:27;;;;;;;25.65;15.32;;;;;;;;;;5028096;28;20056;-86
2022/03/18 03:58:53;;;;;;;20.48;14.38;;;;;;;;;;5017090;28;20044;-86
2022/03/18 04:01:19;;;;;;;19.52;12.95;;;;;;;;;;4991820;28;20038;-86
2022/03/18 04:03:47;;;;;;;22.00;13.70;;;;;;;;;;5024288;28;20072;-86
2022/03/18 04:06:13;;;;;;;20.52;13.48;;;;;;;;;;5031332;28;20033;-86
2022/03/18 04:08:39;;;;;;;20.23;12.77;;;;;;;;;;5027870;28;20505;-86
2022/03/18 04:11:05;;;;;;;23.20;14.20;;;;;;;;;;5013177;28;20052;-86
2022/03/18 04:13:31;;;;;;;21.55;14.80;;;;;;;;;;5040787;28;20124;-86
2022/03/18 04:15:57;;;;;;;21.42;13.88;;;;;;;;;;5024908;28;20045;-86
2022/03/18 04:18:23;;;;;;;19.13;13.48;;;;;;;;;;5034741;28;20099;-85
2022/03/18 04:20:49;;;;;;;25.60;15.77;;;;;;;;;;5024551;28;20115;-86
2022/03/18 04:23:15;;;;;;;24.25;15.55;;;;;;;;;;5008951;28;20057;-86
2022/03/18 04:25:41;;;;;;;28.48;18.23;;;;;;;;;;5024303;28;20512;-86
2022/03/18 04:28:07;;;;;;;21.38;16.15;;;;;;;;;;4997446;28;20049;-86
2022/03/18 04:30:33;;;;;;;20.90;14.93;;;;;;;;;;5008097;28;20045;-86
2022/03/18 04:32:59;;;;;;;21.45;14.07;;;;;;;;;;5021267;28;20265;-86
2022/03/18 04:35:26;;;;;;;20.48;14.38;;;;;;;;;;5008137;28;20459;-86
2022/03/18 04:37:52;;;;;;;20.05;14.50;;;;;;;;;;5008077;28;20092;-86
2022/03/18 04:40:18;;;;;;;20.08;14.35;;;;;;;;;;5017066;28;20081;-86
2022/03/18 04:42:45;;;;;;;21.35;14.23;;;;;;;;;;5008031;28;20180;-86
2022/03/18 04:45:11;;;;;;;18.98;14.65;;;;;;;;;;5023889;28;20034;-86
2022/03/18 04:47:37;;;;;;;19.77;14.27;;;;;;;;;;4998553;28;20253;-86
2022/03/18 04:50:04;;;;;;;25.38;16.75;;;;;;;;;;5023917;28;20037;-86
2022/03/18 04:52:30;;;;;;;21.98;16.05;;;;;;;;;;5007987;28;20549;-86
2022/03/18 04:54:56;;;;;;;25.30;17.90;;;;;;;;;;5007617;28;20037;-86
2022/03/18 04:57:22;;;;;;;28.40;19.17;;;;;;;;;;5010668;28;20049;-86
2022/03/18 04:59:49;;;;;;;25.15;19.95;;;;;;;;;;5007403;28;20049;-86
2022/03/18 05:02:16;;;;;;;23.50;18.58;;;;;;;;;;5018855;28;20382;-86
2022/03/18 05:04:42;;;;;;;20.85;16.83;;;;;;;;;;5007434;28;20118;-86
2022/03/18 05:07:09;;;;;;;31.98;18.55;;;;;;;;;;5010804;28;20408;-86
2022/03/18 05:09:35;;;;;;;26.10;19.55;;;;;;;;;;5007796;28;20556;-86
2022/03/18 05:12:01;;;;;;;24.67;19.50;;;;;;;;;;5007602;28;20138;-86
2022/03/18 05:14:27;;;;;;;31.05;19.98;;;;;;;;;;5008565;28;20520;-86
2022/03/18 05:16:53;;;;;;;25.38;18.65;;;;;;;;;;5021075;28;20121;-86
2022/03/18 05:19:19;;;;;;;22.00;17.40;;;;;;;;;;5033082;28;20053;-86
2022/03/18 05:21:45;;;;;;;22.90;15.95;;;;;;;;;;5013947;28;20120;-86
2022/03/18 05:24:11;;;;;;;25.92;18.15;;;;;;;;;;5039738;28;20212;-86
2022/03/18 05:26:37;;;;;;;22.05;16.85;;;;;;;;;;5028483;28;20537;-86
2022/03/18 05:29:03;;;;;;;26.02;16.83;;;;;;;;;;5023668;28;20044;-86
2022/03/18 05:31:31;;;;;;;24.67;16.83;;;;;;;;;;5016864;28;20501;-86
2022/03/18 05:33:57;;;;;;;21.77;16.40;;;;;;;;;;5011285;28;20821;-86
2022/03/18 05:36:23;;;;;;;22.80;16.30;;;;;;;;;;5028144;28;20050;-86
2022/03/18 05:38:49;;;;;;;23.50;16.80;;;;;;;;;;5020031;28;20264;-86
2022/03/18 05:41:16;;;;;;;22.65;16.05;;;;;;;;;;5025053;28;20053;-86
2022/03/18 05:43:43;;;;;;;22.52;16.95;;;;;;;;;;5008793;28;20041;-86
2022/03/18 05:46:09;;;;;;;21.65;16.90;;;;;;;;;;5013676;28;20077;-87
2022/03/18 05:48:35;;;;;;;26.50;17.52;;;;;;;;;;5010695;28;20139;-87
2022/03/18 05:51:01;;;;;;;24.20;17.80;;;;;;;;;;5010688;28;20088;-86
2022/03/18 05:53:28;;;;;;;27.42;19.45;;;;;;;;;;5010674;28;20048;-86
2022/03/18 05:58:40;;;;;;;28.83;21.27;;;;;;;;;;5010400;28;20053;-86
2022/03/18 06:01:05;;;;;;;25.40;21.00;;;;;;;;;;5010965;28;20050;-87
2022/03/18 06:03:33;;;;;;;23.92;17.48;;;;;;;;;;5010848;28;20507;-87
2022/03/18 06:05:59;;;;;;;28.50;20.50;;;;;;;;;;5010887;28;20608;-87
2022/03/18 06:14:14;;;;;;;22.52;18.00;;;;;;;;;;5013859;28;20045;-87
2022/03/18 06:16:40;;;;;;;24.08;17.63;;;;;;;;;;5023583;28;20088;-86
2022/03/18 06:19:06;;;;;;;22.08;16.63;;;;;;;;;;5021428;28;20049;-87
2022/03/18 06:21:32;;;;;;;26.38;17.40;;;;;;;;;;5009993;28;20060;-86
2022/03/18 06:23:58;;;;;;;23.13;16.88;;;;;;;;;;5031116;28;20049;-87
2022/03/18 06:26:24;;;;;;;21.08;15.90;;;;;;;;;;5022988;28;20655;-87
2022/03/18 06:28:50;;;;;;;28.13;20.85;;;;;;;;;;5027907;28;20156;-87
2022/03/18 06:31:16;;;;;;;28.13;19.33;;;;;;;;;;5019062;28;20042;-87
2022/03/18 06:33:46;;;;;;;27.92;19.75;;;;;;;;;;5032705;28;20091;-88
2022/03/18 06:36:12;;;;;;;25.30;19.02;;;;;;;;;;5032692;28;20127;-87
2022/03/18 06:38:38;;;;;;;26.65;19.25;;;;;;;;;;5029749;28;20046;-87
2022/03/18 06:41:04;;;;;;;23.90;19.42;;;;;;;;;;5031031;28;20513;-87
2022/03/18 06:43:30;;;;;;;25.08;19.00;;;;;;;;;;5034175;28;20076;-87
2022/03/18 06:45:56;;;;;;;26.83;19.65;;;;;;;;;;5032777;28;20099;-87
2022/03/18 06:48:22;;;;;;;25.08;19.23;;;;;;;;;;5015663;28;20509;-86
2022/03/18 06:50:49;;;;;;;23.90;18.27;;;;;;;;;;5032093;28;20111;-87
2022/03/18 06:53:15;;;;;;;25.60;19.60;;;;;;;;;;5016197;28;20064;-88
2022/03/18 06:55:40;;;;;;;24.55;19.55;;;;;;;;;;5032784;28;20034;-87
2022/03/18 06:58:07;;;;;;;24.55;19.02;;;;;;;;;;5032664;28;20048;-87
2022/03/18 07:00:33;;;;;;;23.65;18.27;;;;;;;;;;5032518;28;20082;-88
2022/03/18 07:02:59;;;;;;;23.77;17.85;;;;;;;;;;5032549;28;20041;-88
2022/03/18 07:05:27;;;;;;;28.27;21.08;;;;;;;;;;5032708;28;20037;-88
2022/03/18 07:07:53;;;;;;;26.08;19.83;;;;;;;;;;5032263;28;20486;-87
2022/03/18 07:10:19;;;;;;;30.15;22.42;;;;;;;;;;5039863;28;20053;-88
2022/03/18 07:12:45;;;;;;;29.08;22.55;;;;;;;;;;5032718;28;20123;-88
2022/03/18 07:15:11;;;;;;;32.05;24.45;;;;;;;;;;5036299;28;20180;-88
2022/03/18 07:17:55;;;;;;;32.15;26.13;;;;;;;;;;5031962;28;20052;-87
2022/03/18 07:20:22;;;;;;;33.40;26.33;;;;;;;;;;5029766;28;20049;-88
2022/03/18 07:22:58;;;;;;;33.97;28.65;;;;;;;;;;5015207;28;20421;-87
2022/03/18 07:25:24;;;;;;;39.00;28.08;;;;;;;;;;5031329;28;20045;-88
2022/03/18 07:27:50;;;;;;;34.95;25.75;;;;;;;;;;5030714;28;20400;-88
2022/03/18 07:30:16;;;;;;;33.50;23.75;;;;;;;;;;5015554;28;20045;-88
2022/03/18 07:32:42;;;;;;;33.63;27.35;;;;;;;;;;5012958;28;20123;-89
2022/03/18 07:35:10;;;;;;;34.85;26.95;;;;;;;;;;5014343;28;20045;-89
2022/03/18 07:37:36;;;;;;;32.53;25.98;;;;;;;;;;5011525;28;20555;-88
2022/03/18 07:40:03;;;;;;;33.70;26.70;;;;;;;;;;5032197;28;20044;-89
2022/03/18 07:42:39;;;;;;;46.50;31.42;;;;;;;;;;5031732;28;20045;-89
2022/03/18 07:45:05;;;;;;;36.72;29.05;;;;;;;;;;5031984;28;20045;-89
2022/03/18 07:47:31;;;;;;;36.80;27.73;;;;;;;;;;5031309;28;20567;-89
2022/03/18 07:49:57;;;;;;;40.85;30.80;;;;;;;;;;5037023;28;20036;-89
2022/03/18 07:52:25;;;;;;;39.53;28.90;;;;;;;;;;5032152;28;20072;-88
2022/03/18 07:54:51;;;;;;;36.40;27.17;;;;;;;;;;5039252;28;20100;-88
2022/03/18 07:57:17;;;;;;;36.30;29.00;;;;;;;;;;5030011;28;20053;-87
2022/03/18 07:59:43;;;;;;;33.22;24.88;;;;;;;;;;5029934;28;20045;-88
2022/03/18 08:02:09;;;;;;;37.53;28.90;;;;;;;;;;5034488;28;20099;-89
2022/03/18 08:04:35;;;;;;;35.42;28.52;;;;;;;;;;5041166;28;20045;-88
2022/03/18 08:07:03;;;;;;;47.05;33.25;;;;;;;;;;5031306;28;20037;-88
2022/03/18 08:09:29;;;;;;;42.15;30.25;;;;;;;;;;5048004;28;20037;-87
2022/03/18 08:11:55;;;;;;;47.05;33.05;;;;;;;;;;5030391;28;20485;-88
2022/03/18 08:14:21;;;;;;;40.25;31.65;;;;;;;;;;5010817;28;20401;-88
2022/03/18 08:16:47;;;;;;;41.47;30.27;;;;;;;;;;5027449;28;20045;-87
2022/03/18 08:19:13;;;;;;;42.08;29.42;;;;;;;;;;5029342;28;20171;-88
2022/03/18 08:21:39;;;;;;;39.35;28.58;;;;;;;;;;5031291;28;20128;-88
2022/03/18 08:24:06;;;;;;;38.53;29.02;;;;;;;;;;5030325;28;20064;-88
2022/03/18 08:26:36;;;;;;;38.72;27.55;;;;;;;;;;5041377;28;20045;-87
2022/03/18 08:29:03;;;;;;;32.90;25.25;;;;;;;;;;5029033;28;20382;-88
2022/03/18 08:31:30;;;;;;;38.90;29.00;;;;;;;;;;5028588;28;20100;-89
2022/03/18 08:33:56;;;;;;;37.05;27.33;;;;;;;;;;5017552;28;20113;-89
2022/03/18 08:36:22;;;;;;;33.90;24.42;;;;;;;;;;5024712;28;20057;-89
2022/03/18 08:38:48;;;;;;;37.85;25.02;;;;;;;;;;5020456;28;20125;-89
2022/03/18 08:41:14;;;;;;;35.15;26.38;;;;;;;;;;5013816;28;20485;-88
2022/03/18 08:43:40;;;;;;;35.45;23.55;;;;;;;;;;4994771;28;20052;-88
2022/03/18 08:46:06;;;;;;;33.20;23.02;;;;;;;;;;5006751;28;20112;-89
2022/03/18 08:48:32;;;;;;;28.70;19.95;;;;;;;;;;5020489;28;20129;-89
2022/03/18 08:50:58;;;;;;;29.85;19.80;;;;;;;;;;5026294;28;20029;-88
2022/03/18 08:53:24;;;;;;;26.77;18.90;;;;;;;;;;5023035;28;20135;-88
2022/03/18 08:55:50;;;;;;;31.27;20.90;;;;;;;;;;5027803;28;20038;-88
2022/03/18 08:58:16;;;;;;;26.42;18.55;;;;;;;;;;5026212;28;20045;-88
2022/03/18 09:00:43;;;;;;;26.05;18.45;;;;;;;;;;5022036;28;20453;-89
2022/03/18 09:03:09;;;;;;;23.45;16.92;;;;;;;;;;5013832;28;20508;-89
2022/03/18 09:05:35;;;;;;;26.90;17.25;;;;;;;;;;5006806;28;20086;-90
2022/03/18 09:08:01;;;;;;;24.77;16.08;;;;;;;;;;5008312;28;20038;-88
2022/03/18 09:10:27;;;;;;;27.88;16.77;;;;;;;;;;5022360;28;20505;-90
2022/03/18 09:12:58;;;;;;;25.75;15.77;;;;;;;;;;4997183;28;20041;-90
2022/03/18 09:15:24;;;;;;;27.60;16.85;;;;;;;;;;5025079;28;20128;-92
2022/03/18 09:17:53;;;;;;;19.73;14.48;;;;;;;;;;4992283;28;20049;-89
2022/03/18 09:20:19;;;;;;;22.05;14.27;;;;;;;;;;5008786;28;20042;-89
2022/03/18 09:22:45;;;;;;;26.80;14.85;;;;;;;;;;5010635;28;20041;-90
2022/03/18 09:25:12;;;;;;;22.65;14.20;;;;;;;;;;5012541;28;20527;-91
2022/03/18 09:27:38;;;;;;;23.80;13.52;;;;;;;;;;5024804;28;20042;-91
2022/03/18 09:30:04;;;;;;;24.13;13.60;;;;;;;;;;5022536;28;20041;-90
2022/03/18 09:32:30;;;;;;;22.02;13.85;;;;;;;;;;4991950;28;20042;-90
2022/03/18 09:34:57;;;;;;;22.52;14.40;;;;;;;;;;4992956;28;20077;-90
2022/03/18 09:37:23;;;;;;;19.77;13.23;;;;;;;;;;5018393;28;20052;-89
2022/03/18 09:39:49;;;;;;;22.65;14.30;;;;;;;;;;5008768;28;20682;-90
2022/03/18 09:42:15;;;;;;;19.15;13.25;;;;;;;;;;5009403;28;20072;-89
2022/03/18 09:44:41;;;;;;;18.65;13.55;;;;;;;;;;5007577;28;20125;-89
2022/03/18 09:47:08;;;;;;;22.40;13.65;;;;;;;;;;5003474;28;20033;-90
2022/03/18 09:49:35;;;;;;;21.75;13.30;;;;;;;;;;5010559;28;20046;-89
2022/03/18 09:52:02;;;;;;;18.00;13.18;;;;;;;;;;5026326;28;20120;-89
2022/03/18 09:54:28;;;;;;;20.88;12.65;;;;;;;;;;5020216;28;20046;-89
2022/03/18 09:56:54;;;;;;;20.92;12.55;;;;;;;;;;5036482;28;20053;-90
2022/03/18 09:59:22;;;;;;;19.58;13.73;;;;;;;;;;5011946;28;20065;-89
2022/03/18 10:01:48;;;;;;;20.02;13.48;;;;;;;;;;5023653;28;20489;-90
2022/03/18 10:04:14;;;;;;;18.55;13.05;;;;;;;;;;5031857;28;20556;-90
2022/03/18 10:06:44;;;;;;;19.48;13.50;;;;;;;;;;5024244;28;20401;-89
2022/03/18 10:09:11;;;;;;;19.67;13.18;;;;;;;;;;5020028;28;20038;-90
2022/03/18 10:11:37;;;;;;;19.92;12.80;;;;;;;;;;5015686;28;20054;-90
2022/03/18 10:14:08;;;;;;;17.88;12.63;;;;;;;;;;5024056;28;20049;-90
2022/03/18 10:16:33;;;;;;;18.63;12.75;;;;;;;;;;5035571;28;20471;-90
2022/03/18 10:19:00;;;;;;;19.40;11.80;;;;;;;;;;5023317;28;20045;-90
2022/03/18 10:21:27;;;;;;;15.90;11.32;;;;;;;;;;5040399;28;20085;-90
2022/03/18 10:24:06;;;;;;;16.83;11.32;;;;;;;;;;5031208;28;20053;-90
2022/03/18 10:26:36;;;;;;;17.50;11.85;;;;;;;;;;5014316;28;20046;-90
2022/03/18 10:29:03;;;;;;;19.02;11.68;;;;;;;;;;5024647;28;20044;-90
2022/03/18 10:31:29;;;;;;;18.55;12.50;;;;;;;;;;5027514;28;20090;-91
2022/03/18 10:39:32;;;;;;;18.95;11.65;;;;;;;;;;5023949;28;20053;-90
2022/03/18 10:42:02;;;;;;;18.80;11.18;;;;;;;;;;5007351;28;20083;-90
2022/03/18 10:44:31;;;;;;;17.63;11.82;;;;;;;;;;5023852;28;20077;-90
2022/03/18 10:46:57;;;;;;;20.08;11.23;;;;;;;;;;5000306;28;20052;-91
2022/03/18 10:49:24;;;;;;;16.90;10.35;;;;;;;;;;5007585;28;20037;-91
2022/03/18 10:51:50;;;;;;;18.33;11.23;;;;;;;;;;5035497;28;20053;-91
2022/03/18 10:54:23;;;;;;;16.50;9.90;;;;;;;;;;5028254;28;20099;-91
2022/03/18 10:56:53;;;;;;;18.55;10.10;;;;;;;;;;5024350;28;20466;-91
2022/03/18 10:59:19;;;;;;;17.95;10.30;;;;;;;;;;5031014;28;20254;-91
2022/03/18 11:01:50;;;;;;;19.17;10.30;;;;;;;;;;5019076;28;20038;-91
2022/03/18 11:04:17;;;;;;;18.27;10.18;;;;;;;;;;5026724;28;20060;-91
2022/03/18 11:07:29;;;;;;;16.17;10.15;;;;;;;;;;5015070;28;20046;-91
2022/03/18 11:11:06;;;;;;;13.57;10.70;;;;;;;;;;5047885;28;20049;-90
2022/03/18 11:12:15;;;;;;;15.70;9.65;;;;;;;;;;5031295;28;20498;-91
2022/03/18 11:14:42;;;;;;;16.23;9.63;;;;;;;;;;5015269;28;20052;-91
2022/03/18 11:17:08;;;;;;;14.77;9.48;;;;;;;;;;5030899;28;20049;-91
2022/03/18 11:19:34;;;;;;;14.80;9.95;;;;;;;;;;5018324;28;20052;-90
2022/03/18 11:22:03;;;;;;;16.77;10.07;;;;;;;;;;5014598;28;20045;-91
2022/03/18 11:24:30;;;;;;;15.32;8.90;;;;;;;;;;4996736;28;20049;-91
2022/03/18 11:26:56;;;;;;;14.57;10.50;;;;;;;;;;5020477;28;20479;-91
2022/03/18 11:29:24;;;;;;;16.15;10.50;;;;;;;;;;5023489;28;20113;-91
2022/03/18 11:32:09;;;;;;;16.25;10.40;;;;;;;;;;5042524;28;20500;-91
2022/03/18 11:34:55;;;;;;;14.40;9.30;;;;;;;;;;5033148;28;20508;-91
2022/03/18 11:37:21;;;;;;;17.13;9.85;;;;;;;;;;5006284;28;20052;-92
2022/03/18 11:39:48;;;;;;;15.20;9.50;;;;;;;;;;5029438;28;20465;-90
2022/03/18 11:42:21;;;;;;;15.95;9.85;;;;;;;;;;5010196;28;20405;-91
2022/03/18 11:44:52;;;;;;;16.70;10.32;;;;;;;;;;5019898;28;20068;-91
2022/03/18 11:47:21;;;;;;;14.10;8.88;;;;;;;;;;5016471;28;20045;-90
2022/03/18 11:49:47;;;;;;;14.15;7.60;;;;;;;;;;5012459;28;20042;-91
2022/03/18 11:52:13;;;;;;;13.05;7.18;;;;;;;;;;5023792;28;20041;-91
2022/03/18 11:54:53;;;;;;;13.95;6.88;;;;;;;;;;5010504;28;20111;-90
2022/03/18 11:57:38;;;;;;;13.88;7.38;;;;;;;;;;5025056;28;20050;-90
2022/03/18 12:00:07;;;;;;;12.30;8.25;;;;;;;;;;5031866;28;20120;-92
2022/03/18 12:02:34;;;;;;;14.10;8.27;;;;;;;;;;5019648;28;20124;-91
2022/03/18 12:05:00;;;;;;;13.70;7.72;;;;;;;;;;5006646;28;20045;-90
2022/03/18 12:07:32;;;;;;;13.65;7.88;;;;;;;;;;5013122;28;20041;-90
2022/03/18 12:09:58;;;;;;;12.85;8.60;;;;;;;;;;5022828;28;20116;-91
2022/03/18 12:12:31;;;;;;;13.73;7.72;;;;;;;;;;5008535;28;20326;-89
2022/03/18 12:14:58;;;;;;;15.63;7.93;;;;;;;;;;5025495;28;20555;-90
2022/03/18 12:17:24;;;;;;;14.65;7.55;;;;;;;;;;5009972;28;20129;-91
2022/03/18 12:19:57;;;;;;;12.95;7.47;;;;;;;;;;5016873;28;20041;-90
2022/03/18 12:22:24;;;;;;;12.75;7.10;;;;;;;;;;5018265;28;20042;-90
2022/03/18 12:24:52;;;;;;;14.80;7.68;;;;;;;;;;5023775;28;20087;-91
2022/03/18 12:27:19;;;;;;;13.93;8.02;;;;;;;;;;5029107;28;20075;-91
2022/03/18 12:29:45;;;;;;;15.00;7.90;;;;;;;;;;5045559;28;20493;-91
2022/03/18 12:32:15;;;;;;;14.82;7.78;;;;;;;;;;5017619;28;20038;-92
2022/03/18 12:34:52;;;;;;;17.23;8.20;;;;;;;;;;5024784;28;20041;-88
2022/03/18 12:37:31;;;;;;;14.15;8.02;;;;;;;;;;5029072;28;20241;-90
2022/03/18 12:40:13;;;;;;;13.48;8.40;;;;;;;;;;5018553;28;20053;-91
2022/03/18 12:42:57;;;;;;;13.77;7.45;;;;;;;;;;5024730;28;20107;-91
2022/03/18 12:45:33;;;;;;;15.75;7.70;;;;;;;;;;5019960;28;20553;-91
2022/03/18 12:48:00;;;;;;;15.73;7.82;;;;;;;;;;5008808;28;20045;-91
2022/03/18 12:50:28;;;;;;;14.10;7.72;;;;;;;;;;5009369;28;20501;-93
2022/03/18 12:52:56;;;;;;;15.05;8.50;;;;;;;;;;5013416;28;20049;-89
2022/03/18 12:55:23;;;;;;;14.68;8.95;;;;;;;;;;5021874;28;20120;-92
2022/03/18 12:57:49;;;;;;;14.45;9.32;;;;;;;;;;5020560;28;20161;-92
2022/03/18 13:00:17;;;;;;;15.90;8.85;;;;;;;;;;5028741;28;20624;-92
2022/03/18 13:02:43;;;;;;;16.42;9.55;;;;;;;;;;5012140;28;20266;-91
2022/03/18 13:05:13;;;;;;;15.70;8.70;;;;;;;;;;5028634;28;20132;-91
2022/03/18 13:07:39;;;;;;;15.48;9.55;;;;;;;;;;5024011;28;20043;-92
2022/03/18 13:10:05;;;;;;;16.15;9.60;;;;;;;;;;5009908;28;20053;-92
2022/03/18 13:12:34;;;;;;;16.50;9.05;;;;;;;;;;5056142;28;20120;-92
2022/03/18 13:15:12;;;;;;;20.98;10.20;;;;;;;;;;5018515;28;20038;-90
2022/03/18 13:17:37;;;;;;;16.02;9.95;;;;;;;;;;5023973;28;20581;-90
2022/03/18 13:20:04;;;;;;;14.55;10.05;;;;;;;;;;5011598;28;20065;-91
2022/03/18 13:22:30;;;;;;;16.08;8.07;;;;;;;;;;5024114;28;20071;-90
2022/03/18 13:25:00;;;;;;;14.00;7.10;;;;;;;;;;5015414;28;20065;-90
2022/03/18 13:27:26;;;;;;;13.95;8.10;;;;;;;;;;5018728;28;20050;-90
2022/03/18 13:32:50;;;;;;;16.75;6.97;;;;;;;;;;5020387;28;20053;-90
2022/03/18 13:35:17;;;;;;;15.90;6.65;;;;;;;;;;5018792;28;20484;-91
2022/03/18 13:37:43;;;;;;;16.40;7.28;;;;;;;;;;5026548;28;20041;-90
2022/03/18 13:40:10;;;;;;;12.18;7.30;;;;;;;;;;5018466;28;20056;-89
2022/03/18 13:42:36;;;;;;;13.57;5.32;;;;;;;;;;5029974;28;20078;-89
2022/03/18 13:45:03;;;;;;;13.02;5.75;;;;;;;;;;5028531;28;20041;-89
2022/03/18 13:47:29;;;;;;;15.32;5.78;;;;;;;;;;5016440;28;20527;-89
2022/03/18 13:49:56;;;;;;;11.10;4.88;;;;;;;;;;5024219;28;20042;-88
2022/03/18 13:52:36;;;;;;;12.45;4.40;;;;;;;;;;5025659;28;20172;-88
2022/03/18 13:55:03;;;;;;;13.38;5.13;;;;;;;;;;5008375;28;20042;-90
2022/03/18 13:57:43;;;;;;;10.95;4.90;;;;;;;;;;5019134;28;20075;-86
2022/03/18 14:00:09;;;;;;;11.95;4.38;;;;;;;;;;5022671;28;20389;-88
2022/03/18 14:02:36;;;;;;;14.25;5.15;;;;;;;;;;5029899;28;20066;-89
2022/03/18 14:05:02;;;;;;;10.73;4.28;;;;;;;;;;5027909;28;20048;-88
2022/03/18 14:07:47;;;;;;;13.10;5.47;;;;;;;;;;5012135;28;20033;-89
2022/03/18 14:10:14;;;;;;;13.90;4.28;;;;;;;;;;5027327;28;20037;-89
2022/03/18 14:12:42;;;;;;;10.93;4.72;;;;;;;;;;5017081;28;20033;-88
2022/03/18 14:15:17;;;;;;;10.02;4.65;;;;;;;;;;5033592;28;20107;-90
2022/03/18 14:17:57;;;;;;;11.50;5.30;;;;;;;;;;5020269;28;20429;-91
2022/03/18 14:20:26;;;;;;;14.65;6.30;;;;;;;;;;5026906;28;20033;-89
2022/03/18 14:22:54;;;;;;;15.07;7.65;;;;;;;;;;5032052;28;20060;-92
2022/03/18 14:25:21;;;;;;;18.17;8.52;;;;;;;;;;5008283;28;20085;-91
2022/03/18 14:27:51;;;;;;;16.77;9.40;;;;;;;;;;5011152;28;20484;-91
2022/03/18 14:30:21;;;;;;;15.32;8.43;;;;;;;;;;5011855;28;20049;-91
2022/03/18 14:32:48;;;;;;;17.85;9.18;;;;;;;;;;5026836;28;20108;-91
2022/03/18 14:35:14;;;;;;;15.50;8.20;;;;;;;;;;5027265;28;20408;-90
2022/03/18 14:37:40;;;;;;;15.13;7.93;;;;;;;;;;5039703;28;20045;-91
2022/03/18 14:40:08;;;;;;;16.10;7.15;;;;;;;;;;5039804;28;20106;-86
2022/03/18 14:42:34;;;;;;;16.00;7.13;;;;;;;;;;5037893;28;20080;-89
2022/03/18 14:45:01;;;;;;;16.52;5.82;;;;;;;;;;5029409;28;20048;-92
2022/03/18 14:47:27;;;;;;;12.07;5.18;;;;;;;;;;5037433;28;20107;-88